Time;durP1;ratioP1;P1;durP2;ratioP2;P2;SDS_P1;SDS_P2;PMS_P1;PMS_P2;Temp;Humidity;BMP_temperature;BMP_pressure;BME280_temperature;BME280_humidity;BME280_pressure;Samples;Min_cycle;Max_cycle;Signal;HPM_P1;HPM_P2
2021/09/19 00:00:22;;;;;;;17.70;14.63;;;;;;;11.69;83.40;95406.59;6164668;23;20171;-77
2021/09/19 00:02:47;;;;;;;16.00;14.37;;;;;;;11.71;83.52;95396.84;6140915;23;20159;-78
2021/09/19 00:05:13;;;;;;;17.30;14.93;;;;;;;11.60;83.64;95396.16;6163085;23;20179;-77
2021/09/19 00:07:39;;;;;;;16.53;14.57;;;;;;;11.55;84.21;95388.00;6164195;23;20171;-78
2021/09/19 00:10:06;;;;;;;16.80;14.83;;;;;;;11.55;84.25;95389.78;6164192;23;20179;-77
2021/09/19 00:12:31;;;;;;;17.70;15.70;;;;;;;11.47;84.82;95393.19;6165350;23;20155;-76
2021/09/19 00:14:57;;;;;;;18.47;15.57;;;;;;;11.48;84.78;95391.38;6164241;23;20206;-80
2021/09/19 00:17:22;;;;;;;18.53;16.63;;;;;;;11.38;85.02;95391.50;6165532;23;20202;-79
2021/09/19 00:19:47;;;;;;;18.33;16.27;;;;;;;11.28;85.29;95383.84;6165415;23;20151;-76
2021/09/19 00:22:12;;;;;;;18.90;17.00;;;;;;;11.32;85.20;95387.78;6164933;23;20156;-77
2021/09/19 00:24:39;;;;;;;18.43;15.83;;;;;;;11.32;85.03;95386.97;6164375;23;20170;-78
2021/09/19 00:27:04;;;;;;;17.50;15.70;;;;;;;11.30;84.85;95391.47;6165249;23;20191;-76
2021/09/19 00:29:30;;;;;;;18.00;15.90;;;;;;;11.27;85.64;95389.19;6164905;23;20204;-78
2021/09/19 00:31:55;;;;;;;19.97;15.97;;;;;;;11.29;85.52;95385.47;6166091;23;20179;-77
2021/09/19 00:34:21;;;;;;;17.60;15.70;;;;;;;11.24;85.48;95377.34;6141031;23;20221;-75
2021/09/19 00:36:46;;;;;;;17.63;15.83;;;;;;;11.17;85.10;95378.09;6165185;23;20243;-75
2021/09/19 00:39:11;;;;;;;17.37;15.00;;;;;;;11.20;85.33;95375.19;6164335;23;20167;-78
2021/09/19 00:41:39;;;;;;;16.90;15.07;;;;;;;11.16;85.65;95368.69;6164580;23;20263;-76
2021/09/19 00:44:05;;;;;;;17.73;15.70;;;;;;;11.13;85.70;95367.22;6163584;23;20420;-77
2021/09/19 00:46:31;;;;;;;16.70;14.90;;;;;;;11.11;85.77;95368.31;6165615;23;20176;-77
2021/09/19 00:48:56;;;;;;;20.27;15.50;;;;;;;11.05;86.04;95365.41;6165826;23;20178;-79
2021/09/19 00:51:21;;;;;;;17.77;15.03;;;;;;;11.16;85.62;95363.50;6167235;23;20352;-78
2021/09/19 00:53:47;;;;;;;16.47;14.43;;;;;;;11.14;85.63;95363.66;6140126;23;20189;-76
2021/09/19 00:56:19;;;;;;;18.33;15.37;;;;;;;11.00;85.76;95359.84;6140350;23;20191;-76
2021/09/19 00:58:47;;;;;;;17.27;15.43;;;;;;;10.95;86.15;95353.47;6164772;23;20186;-77
2021/09/19 01:01:12;;;;;;;17.87;15.97;;;;;;;10.89;86.28;95354.91;6140538;23;20160;-77
2021/09/19 01:03:37;;;;;;;17.53;15.67;;;;;;;10.90;86.41;95350.53;6163082;23;20286;-77
2021/09/19 01:06:03;;;;;;;17.50;15.70;;;;;;;10.94;86.62;95351.84;6140229;23;20234;-78
2021/09/19 01:08:28;;;;;;;18.10;16.13;;;;;;;10.93;86.94;95356.22;6164452;23;20186;-78
2021/09/19 01:10:54;;;;;;;16.37;14.60;;;;;;;10.88;86.50;95347.28;6139901;23;20214;-77
2021/09/19 01:13:19;;;;;;;18.37;16.07;;;;;;;10.83;86.91;95350.31;6163498;23;20151;-78
2021/09/19 01:15:44;;;;;;;18.50;16.50;;;;;;;10.81;86.81;95351.44;6163698;23;20326;-77
2021/09/19 01:18:10;;;;;;;21.47;16.43;;;;;;;10.79;87.00;95341.22;6164218;23;20163;-77
2021/09/19 01:20:35;;;;;;;19.73;15.97;;;;;;;10.75;86.88;95342.47;6166905;23;20160;-77
2021/09/19 01:23:09;;;;;;;16.23;14.53;;;;;;;10.84;86.90;95340.75;6140986;23;20155;-78
2021/09/19 01:25:34;;;;;;;18.60;16.60;;;;;;;10.79;87.06;95333.44;6164005;23;20172;-78
2021/09/19 01:28:00;;;;;;;20.07;16.33;;;;;;;10.72;87.21;95332.41;6164110;23;20175;-78
2021/09/19 01:30:26;;;;;;;19.10;15.27;;;;;;;10.67;87.40;95326.84;6165988;23;20151;-77
2021/09/19 01:32:51;;;;;;;18.83;15.97;;;;;;;10.69;87.62;95330.09;6165611;23;20179;-76
2021/09/19 01:35:16;;;;;;;16.67;14.57;;;;;;;10.67;87.49;95334.63;6138623;23;20175;-77
2021/09/19 01:37:42;;;;;;;18.43;15.73;;;;;;;10.64;87.67;95330.56;6165542;23;20151;-76
2021/09/19 01:40:09;;;;;;;19.27;15.90;;;;;;;10.68;87.43;95328.47;6138313;23;20504;-78
2021/09/19 01:42:34;;;;;;;19.17;16.90;;;;;;;10.64;87.52;95320.19;6164642;23;20191;-77
2021/09/19 01:45:00;;;;;;;17.57;15.63;;;;;;;10.65;87.54;95318.41;6162178;23;20159;-78
2021/09/19 01:47:25;;;;;;;18.40;16.37;;;;;;;10.64;87.57;95316.78;6164923;23;20183;-77
2021/09/19 01:49:51;;;;;;;17.43;15.33;;;;;;;10.69;87.40;95311.91;6139666;23;20163;-78
2021/09/19 01:52:17;;;;;;;20.60;15.93;;;;;;;10.63;87.72;95312.56;6165579;23;20497;-77
2021/09/19 01:54:43;;;;;;;19.27;15.97;;;;;;;10.65;87.17;95302.81;6138730;23;20198;-78
2021/09/19 01:57:09;;;;;;;17.27;15.23;;;;;;;10.64;87.15;95303.78;6164459;23;20249;-78
2021/09/19 01:59:34;;;;;;;17.47;15.67;;;;;;;10.74;87.49;95299.28;6163600;23;20159;-77
2021/09/19 02:01:59;;;;;;;17.80;15.03;;;;;;;10.73;87.14;95297.66;6164527;23;20179;-77
2021/09/19 02:04:25;;;;;;;18.13;14.23;;;;;;;10.73;87.22;95295.88;6163468;23;20151;-77
2021/09/19 02:06:50;;;;;;;19.03;16.10;;;;;;;10.65;87.45;95295.84;6164851;23;20175;-78
2021/09/19 02:09:15;;;;;;;20.27;16.90;;;;;;;10.67;87.59;95300.88;6165837;23;20182;-78
2021/09/19 02:11:41;;;;;;;17.30;15.13;;;;;;;10.66;87.49;95291.47;6164356;23;20167;-77
2021/09/19 02:14:06;;;;;;;17.50;15.70;;;;;;;10.62;87.08;95296.16;6138611;23;20601;-78
2021/09/19 02:16:31;;;;;;;18.33;15.17;;;;;;;10.57;87.56;95287.19;6139516;23;20183;-79
2021/09/19 02:18:57;;;;;;;20.50;15.90;;;;;;;10.59;87.50;95285.25;6164448;23;20148;-75
2021/09/19 02:21:23;;;;;;;16.20;14.50;;;;;;;10.61;87.24;95294.53;6169335;23;20160;-79
2021/09/19 02:23:49;;;;;;;17.60;15.67;;;;;;;10.55;87.39;95284.75;6136473;23;20297;-77
2021/09/19 02:26:14;;;;;;;17.60;15.43;;;;;;;10.51;87.65;95283.41;6134419;23;20183;-77
2021/09/19 02:28:39;;;;;;;16.63;14.10;;;;;;;10.55;87.68;95294.31;6158688;23;20199;-78
2021/09/19 02:31:05;;;;;;;16.30;14.23;;;;;;;10.59;87.25;95286.06;6158674;23;20151;-77
2021/09/19 02:33:30;;;;;;;17.07;14.57;;;;;;;10.53;87.39;95286.69;6158385;23;20155;-78
2021/09/19 02:35:55;;;;;;;16.93;15.27;;;;;;;10.50;87.52;95280.00;6158856;23;20175;-77
2021/09/19 02:38:21;;;;;;;17.27;14.87;;;;;;;10.64;87.41;95277.81;6134361;23;20206;-77
2021/09/19 02:40:47;;;;;;;17.13;14.97;;;;;;;10.51;87.54;95273.03;6133060;23;20162;-76
2021/09/19 02:43:12;;;;;;;16.70;14.07;;;;;;;10.43;88.01;95271.22;6159622;23;20295;-78
2021/09/19 02:45:38;;;;;;;18.63;15.00;;;;;;;10.38;87.87;95263.06;6159634;23;20234;-76
2021/09/19 02:48:03;;;;;;;18.27;14.93;;;;;;;10.37;87.88;95266.63;6134913;23;20187;-75
2021/09/19 02:50:29;;;;;;;16.83;15.07;;;;;;;10.35;88.26;95268.59;6135812;23;20527;-77
2021/09/19 02:52:54;;;;;;;18.60;14.90;;;;;;;10.33;87.92;95261.88;6162982;23;20593;-77
2021/09/19 02:55:20;;;;;;;17.60;14.37;;;;;;;10.28;87.87;95251.97;6161384;23;20243;-76
2021/09/19 02:57:46;;;;;;;16.27;14.57;;;;;;;10.27;87.95;95255.56;6162095;23;20194;-77
2021/09/19 03:00:14;;;;;;;17.27;14.80;;;;;;;10.35;88.45;95250.41;6163953;23;20162;-76
2021/09/19 03:02:40;;;;;;;17.13;15.03;;;;;;;10.35;87.97;95247.81;6161683;23;20159;-77
2021/09/19 03:05:06;;;;;;;16.23;14.53;;;;;;;10.32;88.30;95242.09;6161290;23;20643;-78
2021/09/19 03:07:31;;;;;;;16.23;14.40;;;;;;;10.31;87.95;95243.88;6163947;23;20202;-78
2021/09/19 03:09:56;;;;;;;16.03;14.33;;;;;;;10.28;88.03;95240.78;6161742;23;20155;-76
2021/09/19 03:12:22;;;;;;;18.53;14.00;;;;;;;10.29;88.52;95247.59;6161562;23;20539;-76
2021/09/19 03:14:47;;;;;;;15.20;13.53;;;;;;;10.36;88.02;95241.66;6163613;23;20633;-78
2021/09/19 03:17:12;;;;;;;16.10;13.50;;;;;;;10.27;87.95;95244.34;6165974;23;20159;-77
2021/09/19 03:19:38;;;;;;;15.97;13.73;;;;;;;10.27;88.15;95233.97;6140549;23;20186;-79
2021/09/19 03:22:03;;;;;;;15.97;14.27;;;;;;;10.23;88.11;95236.03;6166079;23;20155;-76
2021/09/19 03:24:29;;;;;;;15.90;13.40;;;;;;;10.25;88.59;95243.66;6165202;23;20163;-77
2021/09/19 03:26:54;;;;;;;17.20;14.13;;;;;;;10.18;88.49;95233.09;6141388;23;20186;-78
2021/09/19 03:29:20;;;;;;;16.60;13.27;;;;;;;10.16;88.19;95232.44;6137979;23;20194;-77
2021/09/19 03:31:46;;;;;;;16.23;14.27;;;;;;;10.14;88.38;95236.94;6162117;23;20174;-77
2021/09/19 03:34:11;;;;;;;17.40;14.00;;;;;;;10.10;88.70;95235.63;6161551;23;20152;-77
2021/09/19 03:36:36;;;;;;;17.47;14.33;;;;;;;10.08;88.51;95235.78;6161872;23;20179;-78
2021/09/19 03:39:03;;;;;;;16.70;13.77;;;;;;;10.08;88.59;95229.78;6136889;23;20164;-78
2021/09/19 03:41:29;;;;;;;15.70;14.00;;;;;;;10.03;88.47;95229.41;6138261;23;20155;-78
2021/09/19 03:43:55;;;;;;;16.47;14.07;;;;;;;10.05;88.33;95227.47;6138100;23;20158;-79
2021/09/19 03:46:20;;;;;;;16.70;13.53;;;;;;;10.05;88.22;95235.25;6141361;23;20179;-79
2021/09/19 03:48:45;;;;;;;15.30;13.47;;;;;;;10.04;88.07;95236.22;6163256;23;20174;-78
2021/09/19 03:51:11;;;;;;;18.00;13.70;;;;;;;9.99;88.15;95235.88;6137296;23;20163;-78
2021/09/19 03:53:36;;;;;;;17.47;14.40;;;;;;;10.04;88.19;95233.63;6164375;23;20170;-78
2021/09/19 03:56:01;;;;;;;16.87;13.83;;;;;;;9.93;88.51;95242.47;6141087;23;20187;-77
2021/09/19 03:58:27;;;;;;;14.77;13.17;;;;;;;9.98;88.50;95245.41;6167969;23;20155;-79
2021/09/19 04:00:52;;;;;;;14.23;12.73;;;;;;;10.05;88.30;95241.25;6167212;23;20155;-78
2021/09/19 04:03:17;;;;;;;16.47;14.53;;;;;;;9.94;88.48;95246.69;6167109;23;20155;-77
2021/09/19 04:05:43;;;;;;;17.10;13.67;;;;;;;9.91;89.09;95247.00;6167214;23;20194;-78
2021/09/19 04:08:08;;;;;;;15.07;13.47;;;;;;;9.88;88.79;95252.47;6168573;23;20179;-79
2021/09/19 04:10:33;;;;;;;16.23;13.53;;;;;;;9.86;89.02;95249.22;6168316;23;20632;-78
2021/09/19 04:12:59;;;;;;;16.37;13.43;;;;;;;9.87;88.89;95241.28;6137417;23;20598;-78
2021/09/19 04:15:24;;;;;;;16.47;13.70;;;;;;;9.84;89.13;95254.56;6161925;23;20175;-76
2021/09/19 04:17:49;;;;;;;17.37;14.57;;;;;;;9.79;89.26;95251.59;6163124;23;20204;-78
2021/09/19 04:20:15;;;;;;;17.73;14.33;;;;;;;9.79;89.08;95246.41;6138927;23;20155;-77
2021/09/19 04:22:41;;;;;;;17.00;14.80;;;;;;;9.80;89.41;95247.22;6163350;23;20187;-78
2021/09/19 04:25:08;;;;;;;19.67;15.03;;;;;;;9.78;89.59;95238.78;6161226;23;20175;-78
2021/09/19 04:27:33;;;;;;;18.47;14.60;;;;;;;9.74;89.58;95238.28;6162019;23;20250;-77
2021/09/19 04:29:59;;;;;;;17.03;15.20;;;;;;;9.73;89.78;95241.84;6164932;23;20158;-78
2021/09/19 04:32:24;;;;;;;20.77;15.30;;;;;;;9.76;89.87;95246.72;6164997;23;20166;-76
2021/09/19 04:34:49;;;;;;;20.33;16.27;;;;;;;9.78;90.04;95252.56;6163208;23;20162;-78
2021/09/19 04:37:16;;;;;;;23.07;16.87;;;;;;;9.73;89.95;95251.41;6166160;23;20203;-78
2021/09/19 04:39:42;;;;;;;19.73;17.30;;;;;;;9.78;90.07;95249.97;6164690;23;20231;-77
2021/09/19 04:42:08;;;;;;;20.67;17.83;;;;;;;9.79;90.29;95249.00;6118116;23;20167;-77
2021/09/19 04:44:33;;;;;;;24.27;18.73;;;;;;;9.81;90.69;95254.06;6139636;23;20182;-77
2021/09/19 04:46:59;;;;;;;22.20;16.90;;;;;;;9.78;90.60;95249.16;6162364;23;20179;-76
2021/09/19 04:49:24;;;;;;;21.50;17.53;;;;;;;9.80;90.93;95255.81;6161993;23;20163;-77
2021/09/19 04:51:49;;;;;;;21.50;17.60;;;;;;;9.81;90.80;95254.06;6162918;23;20152;-77
2021/09/19 04:54:15;;;;;;;20.47;16.00;;;;;;;9.80;91.19;95258.41;6137165;23;20252;-77
2021/09/19 04:56:40;;;;;;;19.73;16.70;;;;;;;9.81;91.16;95256.66;6161934;23;20190;-77
2021/09/19 04:59:05;;;;;;;19.37;14.77;;;;;;;9.77;91.24;95256.13;6138357;23;20155;-78
2021/09/19 05:01:31;;;;;;;18.40;15.17;;;;;;;9.77;91.20;95263.09;6162961;23;20158;-78
2021/09/19 05:03:56;;;;;;;18.10;15.47;;;;;;;9.80;91.12;95261.00;6162849;23;20185;-78
2021/09/19 05:06:21;;;;;;;18.07;15.53;;;;;;;9.83;90.63;95258.13;6163457;23;20171;-78
2021/09/19 05:08:47;;;;;;;18.10;16.00;;;;;;;9.81;91.02;95260.06;6164468;23;20246;-77
2021/09/19 05:11:12;;;;;;;17.63;15.37;;;;;;;9.80;90.97;95263.59;6161629;23;20214;-77
2021/09/19 05:13:37;;;;;;;18.20;14.97;;;;;;;9.84;91.07;95266.72;6161378;23;20155;-77
2021/09/19 05:16:03;;;;;;;17.83;15.20;;;;;;;9.78;90.75;95270.72;6138412;23;20189;-79
2021/09/19 05:18:28;;;;;;;18.97;15.40;;;;;;;9.79;90.64;95267.16;6138634;23;20155;-77
2021/09/19 05:20:53;;;;;;;20.53;15.73;;;;;;;9.83;90.78;95273.69;6161594;23;20222;-78
2021/09/19 05:23:19;;;;;;;19.87;15.57;;;;;;;9.86;90.64;95267.38;6137873;23;20192;-78
2021/09/19 05:25:44;;;;;;;21.20;16.47;;;;;;;9.90;90.84;95268.72;6161232;23;20653;-76
2021/09/19 05:28:09;;;;;;;20.00;16.67;;;;;;;9.92;90.59;95277.97;6165329;23;20202;-76
2021/09/19 05:30:34;;;;;;;19.37;16.67;;;;;;;9.97;90.28;95274.09;6140479;23;20166;-77
2021/09/19 05:33:00;;;;;;;21.20;15.60;;;;;;;10.04;90.19;95282.91;6164200;23;20156;-77
2021/09/19 05:35:25;;;;;;;18.53;16.43;;;;;;;10.03;89.93;95283.88;6163773;23;20179;-77
2021/09/19 05:37:50;;;;;;;18.47;15.20;;;;;;;10.08;90.05;95282.47;6164334;23;20468;-78
2021/09/19 05:40:16;;;;;;;18.47;15.47;;;;;;;10.16;89.37;95285.13;6137641;23;20167;-78
2021/09/19 05:42:42;;;;;;;19.93;15.67;;;;;;;10.14;89.45;95286.22;6138793;23;20182;-78
2021/09/19 05:45:07;;;;;;;18.87;15.27;;;;;;;10.16;89.65;95290.31;6138512;23;20494;-78
2021/09/19 05:47:33;;;;;;;16.33;14.33;;;;;;;10.27;89.20;95288.47;6139967;23;20467;-77
2021/09/19 05:49:58;;;;;;;16.13;13.63;;;;;;;10.29;88.81;95284.75;6164780;23;20175;-79
2021/09/19 05:52:23;;;;;;;15.63;14.03;;;;;;;10.47;88.32;95292.50;6140797;23;20167;-77
2021/09/19 05:54:49;;;;;;;15.07;12.93;;;;;;;10.46;88.32;95289.09;6139543;23;20177;-78
2021/09/19 05:57:14;;;;;;;14.97;12.97;;;;;;;10.48;88.57;95289.75;6139257;23;20174;-77
2021/09/19 05:59:40;;;;;;;16.83;12.77;;;;;;;10.56;88.06;95290.75;6138556;23;20159;-78
2021/09/19 06:02:05;;;;;;;15.80;13.20;;;;;;;10.57;87.50;95284.59;6163156;23;20206;-77
2021/09/19 06:04:30;;;;;;;13.57;11.97;;;;;;;10.63;87.42;95286.59;6162845;23;20238;-78
2021/09/19 06:06:55;;;;;;;14.00;12.47;;;;;;;10.63;87.66;95286.59;6138283;23;20202;-78
2021/09/19 06:09:21;;;;;;;13.67;12.20;;;;;;;10.68;87.09;95284.31;6164497;23;20503;-77
2021/09/19 06:11:47;;;;;;;12.97;11.67;;;;;;;10.72;87.29;95281.28;6162180;23;20238;-78
2021/09/19 06:14:12;;;;;;;14.87;13.30;;;;;;;10.83;86.76;95281.97;6162710;23;20147;-78
2021/09/19 06:16:38;;;;;;;15.50;12.17;;;;;;;10.87;86.70;95278.13;6163896;23;20178;-79
2021/09/19 06:19:04;;;;;;;13.63;12.23;;;;;;;10.97;86.45;95277.00;6163183;23;20159;-77
2021/09/19 06:21:29;;;;;;;13.37;11.97;;;;;;;10.99;86.24;95282.84;6138857;23;20182;-78
2021/09/19 06:23:55;;;;;;;12.93;11.53;;;;;;;11.07;85.50;95280.28;6139032;23;20163;-78
2021/09/19 06:26:20;;;;;;;13.97;11.67;;;;;;;11.05;85.89;95274.44;6162972;23;20198;-78
2021/09/19 06:28:45;;;;;;;12.70;10.80;;;;;;;11.15;85.62;95268.31;6161488;23;20214;-78
2021/09/19 06:31:11;;;;;;;14.03;11.17;;;;;;;11.24;85.39;95268.16;6137761;23;20159;-77
2021/09/19 06:33:36;;;;;;;12.40;11.10;;;;;;;11.31;84.46;95269.16;6164647;23;20206;-77
2021/09/19 06:36:03;;;;;;;12.83;10.60;;;;;;;11.44;84.26;95271.28;6161666;23;20182;-79
2021/09/19 06:38:28;;;;;;;11.57;10.37;;;;;;;11.44;84.37;95273.91;6139398;23;20233;-79
2021/09/19 06:40:53;;;;;;;12.43;10.40;;;;;;;11.55;84.04;95278.78;6161040;23;20163;-78
2021/09/19 06:43:19;;;;;;;11.60;10.40;;;;;;;11.50;84.15;95275.06;6161489;23;20222;-78
2021/09/19 06:45:44;;;;;;;11.60;10.40;;;;;;;11.63;83.13;95281.41;6161684;23;20174;-77
2021/09/19 06:48:10;;;;;;;12.00;10.73;;;;;;;11.68;82.99;95277.53;6161370;23;20175;-78
2021/09/19 06:50:35;;;;;;;12.70;10.70;;;;;;;11.76;82.93;95283.56;6161874;23;20238;-78
2021/09/19 06:53:01;;;;;;;10.93;9.67;;;;;;;11.83;82.72;95278.53;6161204;23;20628;-77
2021/09/19 06:55:27;;;;;;;10.83;9.60;;;;;;;11.90;82.39;95282.13;6137668;23;20249;-78
2021/09/19 06:58:01;;;;;;;11.20;10.10;;;;;;;11.98;82.74;95281.31;6164362;23;20147;-77
2021/09/19 07:00:26;;;;;;;11.70;10.50;;;;;;;12.02;82.44;95280.03;6162742;23;20166;-78
2021/09/19 07:02:52;;;;;;;10.40;9.33;;;;;;;12.13;81.57;95282.28;6162230;23;20155;-79
2021/09/19 07:05:18;;;;;;;11.00;9.90;;;;;;;12.12;81.15;95284.06;6137017;23;20182;-78
2021/09/19 07:07:43;;;;;;;10.33;9.00;;;;;;;12.13;81.69;95292.69;6139611;23;20226;-79
2021/09/19 07:10:09;;;;;;;10.23;9.20;;;;;;;12.10;81.85;95286.03;6163917;23;20179;-77
2021/09/19 07:12:34;;;;;;;10.33;9.33;;;;;;;12.21;80.89;95295.31;6139495;23;20194;-78
2021/09/19 07:15:00;;;;;;;9.70;8.40;;;;;;;12.29;81.45;95286.69;6163977;23;20156;-78
2021/09/19 07:17:25;;;;;;;10.40;9.10;;;;;;;12.24;81.11;95284.56;6141519;23;20151;-77
2021/09/19 07:19:50;;;;;;;10.40;9.30;;;;;;;12.38;80.52;95285.69;6163434;23;20160;-77
2021/09/19 07:22:16;;;;;;;11.00;8.80;;;;;;;12.32;79.49;95287.16;6140862;23;20167;-78
2021/09/19 07:24:41;;;;;;;10.20;9.10;;;;;;;12.40;80.05;95289.75;6138660;23;20170;-79
2021/09/19 07:27:06;;;;;;;11.13;9.10;;;;;;;12.41;80.20;95304.38;6164512;23;20182;-79
2021/09/19 07:29:32;;;;;;;10.10;9.00;;;;;;;12.40;80.11;95302.75;6140231;23;20159;-77
2021/09/19 07:32:01;;;;;;;10.00;9.00;;;;;;;12.50;79.77;95305.19;6140037;23;20155;-78
2021/09/19 07:34:27;;;;;;;10.03;8.93;;;;;;;12.48;78.71;95302.75;6163874;23;20161;-78
2021/09/19 07:36:53;;;;;;;10.10;9.10;;;;;;;12.51;79.28;95312.03;6163206;23;20203;-78
2021/09/19 07:39:18;;;;;;;10.50;8.77;;;;;;;12.69;78.78;95307.44;6138354;23;20151;-78
2021/09/19 07:41:44;;;;;;;9.57;8.67;;;;;;;12.67;78.74;95311.19;6165149;23;20174;-77
2021/09/19 07:44:09;;;;;;;9.63;8.70;;;;;;;12.56;79.45;95312.34;6164334;23;20152;-78
2021/09/19 07:46:35;;;;;;;8.97;8.07;;;;;;;12.71;79.11;95313.28;6166349;23;20174;-79
2021/09/19 07:49:00;;;;;;;9.30;8.40;;;;;;;12.69;78.65;95322.25;6167191;23;20253;-79
2021/09/19 07:51:26;;;;;;;8.80;7.70;;;;;;;12.89;78.77;95326.09;6169692;23;20163;-78
2021/09/19 07:53:52;;;;;;;8.60;7.70;;;;;;;12.92;78.28;95331.00;6171988;23;20210;-78
2021/09/19 07:56:19;;;;;;;9.73;8.73;;;;;;;13.07;77.34;95340.72;6174273;23;20242;-79
2021/09/19 07:58:45;;;;;;;10.47;9.37;;;;;;;13.16;77.00;95343.13;6171989;23;20147;-79
2021/09/19 08:01:10;;;;;;;9.77;8.87;;;;;;;13.30;77.44;95354.69;6173055;23;20165;-78
2021/09/19 08:03:35;;;;;;;11.03;8.77;;;;;;;13.33;77.65;95351.75;6171377;23;20235;-76
2021/09/19 08:06:01;;;;;;;11.17;9.00;;;;;;;13.40;77.32;95355.31;6167950;23;20232;-78
2021/09/19 08:08:26;;;;;;;10.20;9.10;;;;;;;13.45;77.59;95358.22;6142424;23;20214;-78
2021/09/19 08:10:51;;;;;;;9.67;8.63;;;;;;;13.55;77.22;95348.41;6167502;23;20207;-78
2021/09/19 08:13:17;;;;;;;10.40;9.07;;;;;;;13.59;76.90;95339.22;6142305;23;20624;-77
2021/09/19 08:15:42;;;;;;;9.50;8.60;;;;;;;13.61;77.14;95336.47;6141566;23;20525;-77
2021/09/19 08:18:07;;;;;;;9.13;8.17;;;;;;;13.72;76.75;95330.88;6167103;23;20648;-78
2021/09/19 08:20:33;;;;;;;10.37;8.43;;;;;;;13.60;77.38;95332.22;6166301;23;20151;-77
2021/09/19 08:22:58;;;;;;;9.17;8.23;;;;;;;13.70;77.42;95330.22;6165956;23;20159;-75
2021/09/19 08:25:25;;;;;;;9.93;8.47;;;;;;;13.87;76.28;95330.94;6165664;23;20246;-77
2021/09/19 08:27:51;;;;;;;8.80;7.63;;;;;;;13.85;76.50;95332.88;6166330;23;20181;-78
2021/09/19 08:30:17;;;;;;;8.57;7.13;;;;;;;13.89;77.17;95334.19;6167090;23;20206;-77
2021/09/19 08:32:43;;;;;;;8.70;7.60;;;;;;;13.98;75.94;95335.75;6169945;23;20155;-77
2021/09/19 08:35:10;;;;;;;7.93;7.13;;;;;;;13.87;75.77;95346.59;6171021;23;20644;-77
2021/09/19 08:37:35;;;;;;;9.30;7.53;;;;;;;13.79;76.13;95342.25;6168258;23;20158;-78
2021/09/19 08:40:00;;;;;;;8.40;7.17;;;;;;;14.00;75.66;95340.81;6169096;23;20159;-78
2021/09/19 08:42:26;;;;;;;7.90;7.20;;;;;;;13.83;75.65;95335.69;6172709;23;20166;-79
2021/09/19 08:44:51;;;;;;;7.47;6.77;;;;;;;14.11;76.06;95337.78;6166789;23;20152;-77
2021/09/19 08:47:17;;;;;;;11.50;9.37;;;;;;;14.13;75.46;95333.19;6168842;23;20170;-77
2021/09/19 08:49:43;;;;;;;7.93;6.97;;;;;;;14.06;74.19;95334.91;6142480;23;20617;-78
2021/09/19 08:52:10;;;;;;;8.37;7.47;;;;;;;13.81;74.77;95348.09;6165759;23;20162;-77
2021/09/19 08:54:36;;;;;;;7.60;6.87;;;;;;;13.93;74.99;95345.91;6141691;23;20687;-77
2021/09/19 08:57:01;;;;;;;7.77;6.57;;;;;;;14.02;74.59;95344.84;6166404;23;20225;-77
2021/09/19 08:59:48;;;;;;;7.30;6.60;;;;;;;14.26;74.30;95349.09;6168074;23;20172;-78
2021/09/19 09:02:14;;;;;;;7.77;6.93;;;;;;;14.33;73.73;95357.06;6144751;23;20147;-77
2021/09/19 09:04:40;;;;;;;8.10;7.30;;;;;;;14.47;73.54;95347.66;6143446;23;20162;-79
2021/09/19 09:07:06;;;;;;;8.43;6.80;;;;;;;14.56;73.91;95339.56;6144080;23;20203;-77
2021/09/19 09:09:31;;;;;;;8.43;7.57;;;;;;;14.71;73.09;95347.44;6169462;23;20189;-78
2021/09/19 09:12:00;;;;;;;9.37;7.80;;;;;;;14.65;72.13;95348.16;6168818;23;20159;-78
2021/09/19 09:14:25;;;;;;;7.93;7.13;;;;;;;14.70;72.60;95345.81;6168113;23;20183;-77
2021/09/19 09:16:51;;;;;;;7.93;7.13;;;;;;;14.93;72.77;95351.81;6167857;23;20175;-78
2021/09/19 09:19:17;;;;;;;8.43;7.43;;;;;;;14.67;72.22;95343.56;6167790;23;20194;-76
2021/09/19 09:21:43;;;;;;;9.00;8.10;;;;;;;14.72;71.81;95342.03;6167722;23;20166;-78
2021/09/19 09:24:14;;;;;;;8.73;7.87;;;;;;;14.84;71.14;95350.28;6140592;23;20170;-76
2021/09/19 09:26:42;;;;;;;9.90;8.40;;;;;;;14.86;70.55;95350.91;6139443;23;20249;-78
2021/09/19 09:29:13;;;;;;;8.40;7.60;;;;;;;15.05;70.79;95340.91;6140843;23;20186;-79
2021/09/19 09:31:40;;;;;;;8.77;7.87;;;;;;;15.09;70.57;95348.19;6165760;23;20163;-79
2021/09/19 09:34:21;;;;;;;10.47;8.67;;;;;;;15.16;70.58;95343.88;6163589;23;20179;-78
2021/09/19 09:36:50;;;;;;;9.90;8.90;;;;;;;15.28;69.65;95347.69;6165270;23;20266;-77
2021/09/19 09:39:34;;;;;;;9.27;8.38;;;;;;;15.39;69.87;95348.22;6165517;23;20616;-79
2021/09/19 09:42:00;;;;;;;9.97;8.97;;;;;;;15.44;69.22;95358.91;6165647;23;20578;-78
2021/09/19 09:44:30;;;;;;;9.27;8.00;;;;;;;15.47;68.08;95358.56;6170900;23;20171;-79
2021/09/19 09:46:57;;;;;;;9.90;8.90;;;;;;;15.56;67.90;95358.28;6164655;23;20628;-78
2021/09/19 09:49:35;;;;;;;9.53;8.50;;;;;;;15.74;68.60;95365.78;6136607;23;20270;-78
2021/09/19 09:52:23;;;;;;;9.57;8.63;;;;;;;15.70;67.36;95355.84;6138983;23;20238;-79
2021/09/19 09:55:08;;;;;;;9.70;8.70;;;;;;;15.70;67.16;95354.03;6165888;23;20163;-77
2021/09/19 09:57:36;;;;;;;10.32;9.38;;;;;;;15.79;66.32;95359.97;6163625;23;20142;-78
2021/09/19 10:00:10;;;;;;;10.57;9.48;;;;;;;15.95;66.78;95359.75;6160980;23;20732;-78
2021/09/19 10:02:40;;;;;;;10.52;9.43;;;;;;;16.03;66.37;95359.66;6161022;23;20181;-77
2021/09/19 10:05:06;;;;;;;10.00;9.00;;;;;;;15.94;66.01;95354.72;6137357;23;20151;-78
2021/09/19 10:07:34;;;;;;;11.48;10.35;;;;;;;16.10;65.28;95351.88;6166328;23;20207;-78
2021/09/19 10:10:01;;;;;;;9.88;8.88;;;;;;;16.00;66.72;95359.22;6164785;23;20162;-78
2021/09/19 10:12:26;;;;;;;11.15;9.55;;;;;;;16.14;65.43;95358.34;6165311;23;20165;-78
2021/09/19 10:14:53;;;;;;;10.70;9.48;;;;;;;16.18;65.39;95359.59;6138668;23;20159;-79
2021/09/19 10:17:19;;;;;;;11.60;9.80;;;;;;;16.13;65.60;95352.28;6161993;23;20605;-79
2021/09/19 10:19:44;;;;;;;10.20;9.10;;;;;;;16.18;66.05;95364.84;6162649;23;20151;-78
2021/09/19 10:22:11;;;;;;;11.02;9.93;;;;;;;16.21;65.10;95358.41;6168991;23;20230;-77
2021/09/19 10:24:37;;;;;;;11.65;10.32;;;;;;;16.42;65.23;95345.28;6168083;23;20210;-77
2021/09/19 10:27:13;;;;;;;10.30;9.30;;;;;;;16.39;65.20;95353.53;6167392;23;20178;-78
2021/09/19 10:29:39;;;;;;;12.25;9.63;;;;;;;16.11;65.64;95338.56;6170712;23;20317;-77
2021/09/19 10:32:04;;;;;;;10.38;9.38;;;;;;;16.26;64.82;95349.00;6171385;23;20492;-77
2021/09/19 10:34:34;;;;;;;10.77;9.35;;;;;;;16.24;64.74;95340.50;6168669;23;20210;-79
2021/09/19 10:37:00;;;;;;;10.65;9.18;;;;;;;16.48;64.55;95348.97;6171581;23;20171;-78
2021/09/19 10:39:41;;;;;;;10.18;8.85;;;;;;;16.78;64.11;95339.97;6172009;23;20147;-77
2021/09/19 10:42:21;;;;;;;9.00;8.15;;;;;;;16.89;63.04;95336.84;6167896;23;20214;-77
2021/09/19 10:44:49;;;;;;;10.43;8.82;;;;;;;17.08;62.36;95335.34;6163490;23;20173;-78
2021/09/19 10:47:36;;;;;;;10.57;9.48;;;;;;;17.16;62.23;95337.00;6164335;23;20170;-78
2021/09/19 10:50:22;;;;;;;9.88;8.98;;;;;;;17.02;61.45;95327.44;6164245;23;20151;-78
2021/09/19 10:52:56;;;;;;;10.02;9.10;;;;;;;17.01;59.97;95328.44;6163448;23;20142;-78
2021/09/19 10:55:29;;;;;;;10.65;8.00;;;;;;;17.42;60.73;95328.47;6135156;23;20201;-78
2021/09/19 10:58:02;;;;;;;10.05;8.55;;;;;;;17.70;59.29;95325.78;6161402;23;20178;-77
2021/09/19 11:00:29;;;;;;;9.02;8.23;;;;;;;17.40;59.22;95331.25;6162289;23;20209;-78
2021/09/19 11:03:09;;;;;;;10.63;9.50;;;;;;;17.89;58.27;95326.84;6136061;23;20159;-79
2021/09/19 11:05:50;;;;;;;10.07;9.07;;;;;;;17.94;58.65;95333.13;6159968;23;20205;-78
2021/09/19 11:08:28;;;;;;;9.48;8.45;;;;;;;17.99;56.78;95329.88;6136604;23;20183;-78
2021/09/19 11:10:55;;;;;;;10.75;8.35;;;;;;;17.64;57.65;95322.06;6161672;23;20136;-78
2021/09/19 11:13:20;;;;;;;8.48;7.68;;;;;;;17.03;62.60;95324.59;6161084;23;20185;-78
2021/09/19 11:16:04;;;;;;;7.13;6.53;;;;;;;17.39;62.52;95320.97;6164664;23;20171;-77
2021/09/19 11:18:39;;;;;;;8.23;7.43;;;;;;;16.68;65.04;95316.72;6167116;23;20153;-77